Time;durP1;ratioP1;P1;durP2;ratioP2;P2;SDS_P1;SDS_P2;PMS_P1;PMS_P2;Temp;Humidity;BMP_temperature;BMP_pressure;BME280_temperature;BME280_humidity;BME280_pressure;Samples;Min_cycle;Max_cycle;Signal;HPM_P1;HPM_P2
2022/05/05 00:01:49;;;;;;;13.45;8.93;;;14.40;99.90;;;;;;4743781;30;20055;-63
2022/05/05 00:04:18;;;;;;;15.73;9.45;;;14.40;99.90;;;;;;4758876;30;20055;-64
2022/05/05 00:06:50;;;;;;;17.73;9.55;;;14.40;99.90;;;;;;4756889;30;20065;-63
2022/05/05 00:09:17;;;;;;;15.18;9.02;;;14.40;99.90;;;;;;4739449;30;20056;-63
2022/05/05 00:14:33;;;;;;;18.52;9.20;;;14.40;99.90;;;;;;4758123;30;20815;-63
2022/05/05 00:17:03;;;;;;;16.33;9.18;;;14.40;99.90;;;;;;4759092;30;20058;-62
2022/05/05 00:19:32;;;;;;;16.45;9.40;;;14.40;99.90;;;;;;4727450;30;20070;-63
2022/05/05 00:22:00;;;;;;;17.23;10.30;;;14.40;99.90;;;;;;4760265;30;20063;-66
2022/05/05 00:24:27;;;;;;;19.10;9.60;;;14.30;99.90;;;;;;4745478;30;20055;-63
2022/05/05 00:26:54;;;;;;;17.13;10.43;;;14.30;99.90;;;;;;4741747;30;20503;-63
2022/05/05 00:29:21;;;;;;;15.73;9.43;;;14.30;99.90;;;;;;4756575;30;20039;-63
2022/05/05 00:31:48;;;;;;;18.55;9.93;;;14.30;99.90;;;;;;4756191;30;20048;-63
2022/05/05 00:34:17;;;;;;;18.42;10.38;;;14.30;99.90;;;;;;4726118;30;20075;-63
2022/05/05 00:36:44;;;;;;;19.17;11.70;;;14.30;99.90;;;;;;4756120;30;20054;-63
2022/05/05 00:39:12;;;;;;;20.23;10.63;;;14.20;99.90;;;;;;4757860;30;20044;-63
2022/05/05 00:41:42;;;;;;;20.15;10.82;;;14.20;99.90;;;;;;4741718;30;20056;-63
2022/05/05 00:44:10;;;;;;;18.45;10.65;;;14.30;99.90;;;;;;4754058;30;20043;-63
2022/05/05 00:46:38;;;;;;;20.27;10.98;;;14.30;99.90;;;;;;4755189;30;20679;-62
2022/05/05 00:49:06;;;;;;;20.77;11.85;;;14.30;99.90;;;;;;4755332;30;20059;-63
2022/05/05 00:51:33;;;;;;;17.42;10.93;;;14.30;99.90;;;;;;4754612;30;20043;-62
2022/05/05 00:54:00;;;;;;;20.77;11.00;;;14.30;99.90;;;;;;4756499;30;20048;-63
2022/05/05 00:56:28;;;;;;;19.92;10.93;;;14.30;99.90;;;;;;4758250;30;20052;-63
2022/05/05 00:58:56;;;;;;;17.17;10.50;;;14.20;99.90;;;;;;4738069;30;20039;-63
2022/05/05 01:01:31;;;;;;;18.92;11.13;;;14.20;99.90;;;;;;4757567;30;20365;-63
2022/05/05 01:03:58;;;;;;;19.15;10.73;;;14.30;99.90;;;;;;4755923;30;20048;-63
2022/05/05 01:06:28;;;;;;;16.77;10.23;;;14.30;99.90;;;;;;4740810;30;20506;-63
2022/05/05 01:08:55;;;;;;;17.08;11.07;;;14.20;99.90;;;;;;4743901;30;20416;-63
2022/05/05 01:11:22;;;;;;;15.55;9.68;;;14.20;99.90;;;;;;4756535;30;20527;-63
2022/05/05 01:13:49;;;;;;;15.13;9.70;;;14.20;99.90;;;;;;4744962;30;20040;-63
2022/05/05 01:16:17;;;;;;;16.33;9.82;;;14.20;99.90;;;;;;4743199;30;20062;-63
2022/05/05 01:18:44;;;;;;;16.55;9.77;;;14.20;99.90;;;;;;4741035;30;20066;-63
2022/05/05 01:21:11;;;;;;;17.05;10.25;;;14.20;99.90;;;;;;4741385;30;20051;-63
2022/05/05 01:23:39;;;;;;;22.50;10.85;;;14.20;99.90;;;;;;4758066;30;20048;-62
2022/05/05 01:28:52;;;;;;;31.02;14.50;;;14.10;99.90;;;;;;4758572;30;20044;-63
2022/05/05 01:31:20;;;;;;;35.83;13.18;;;14.10;99.90;;;;;;4741739;30;20460;-63
2022/05/05 01:33:47;;;;;;;28.27;13.35;;;14.20;99.90;;;;;;4755528;30;20056;-63
2022/05/05 01:36:15;;;;;;;28.50;12.85;;;14.10;99.90;;;;;;4755223;30;20447;-63
2022/05/05 01:38:44;;;;;;;28.30;12.70;;;14.10;99.90;;;;;;4738617;30;20070;-63
2022/05/05 01:41:13;;;;;;;25.00;11.68;;;14.10;99.90;;;;;;4756423;30;20570;-63
2022/05/05 01:43:43;;;;;;;23.67;11.27;;;14.10;99.90;;;;;;4757699;30;20058;-63
2022/05/05 01:46:10;;;;;;;21.13;11.50;;;14.00;99.90;;;;;;4753954;30;20052;-63
2022/05/05 01:48:37;;;;;;;17.80;10.13;;;14.00;99.90;;;;;;4755643;30;20432;-63
2022/05/05 01:51:05;;;;;;;19.50;10.10;;;14.00;99.90;;;;;;4741167;30;20048;-63
2022/05/05 01:53:36;;;;;;;21.30;10.50;;;14.00;99.90;;;;;;4731328;30;20955;-63
2022/05/05 01:56:11;;;;;;;18.60;9.97;;;14.00;99.90;;;;;;4756375;30;20047;-63
2022/05/05 01:58:44;;;;;;;17.63;9.63;;;14.00;99.90;;;;;;4751139;30;20300;-63
2022/05/05 02:01:11;;;;;;;;;;;14.00;99.90;;;;;;4757083;30;20083;-63
2022/05/05 02:03:39;;;;;;;15.43;9.40;;;14.00;99.90;;;;;;4759168;30;19952;-63
2022/05/05 02:06:07;;;;;;;16.45;9.85;;;14.00;99.90;;;;;;4752916;30;20044;-63
2022/05/05 02:08:36;;;;;;;21.45;10.98;;;14.00;99.90;;;;;;4756607;30;20055;-63
2022/05/05 02:11:03;;;;;;;21.52;11.00;;;14.00;99.90;;;;;;4754619;30;20062;-63
2022/05/05 02:13:30;;;;;;;20.30;10.50;;;14.00;99.90;;;;;;4758290;30;20121;-63
2022/05/05 02:15:58;;;;;;;21.92;11.02;;;14.00;99.90;;;;;;4754465;30;20051;-63
2022/05/05 02:18:26;;;;;;;17.77;10.07;;;14.00;99.90;;;;;;4756368;30;21132;-63
2022/05/05 02:20:53;;;;;;;22.75;10.75;;;14.00;99.90;;;;;;4755228;30;20067;-64
2022/05/05 02:23:20;;;;;;;21.75;10.10;;;13.90;99.90;;;;;;4756571;30;20058;-62
2022/05/05 02:25:47;;;;;;;21.00;11.15;;;13.90;99.90;;;;;;4743704;30;20051;-63
2022/05/05 02:28:14;;;;;;;15.52;8.88;;;13.90;99.90;;;;;;4756374;30;20719;-63
2022/05/05 02:30:41;;;;;;;18.83;9.50;;;13.70;99.90;;;;;;4756440;30;20059;-63
2022/05/05 02:33:08;;;;;;;17.52;10.32;;;13.80;99.90;;;;;;4755628;30;20066;-63
2022/05/05 02:35:35;;;;;;;15.27;9.68;;;13.70;99.90;;;;;;4753596;30;21161;-63
2022/05/05 02:40:48;;;;;;;13.77;8.68;;;13.70;99.90;;;;;;4753424;30;20140;-63
2022/05/05 02:43:15;;;;;;;15.43;8.68;;;13.70;99.90;;;;;;4755169;30;20511;-63
2022/05/05 02:45:42;;;;;;;15.07;9.18;;;13.70;99.90;;;;;;4754297;30;20050;-63
2022/05/05 02:48:09;;;;;;;16.17;7.72;;;13.70;99.90;;;;;;4756452;30;20044;-63
2022/05/05 02:50:37;;;;;;;13.55;8.55;;;13.70;99.90;;;;;;4757049;30;20054;-63
2022/05/05 02:56:11;;;;;;;13.55;8.00;;;13.70;99.90;;;;;;4718169;30;20450;-63
2022/05/05 02:58:38;;;;;;;11.00;7.45;;;13.70;99.90;;;;;;4749146;30;20160;-63
2022/05/05 03:01:05;;;;;;;12.68;7.95;;;13.70;99.90;;;;;;4757085;30;20091;-62
2022/05/05 03:03:32;;;;;;;12.32;8.38;;;13.80;99.90;;;;;;4726343;30;20060;-63
2022/05/05 03:06:00;;;;;;;14.45;8.55;;;13.80;99.90;;;;;;4756294;30;20048;-63
2022/05/05 03:08:27;;;;;;;13.60;7.75;;;13.80;99.90;;;;;;4747234;30;20047;-63
2022/05/05 03:10:54;;;;;;;14.13;8.25;;;13.70;99.90;;;;;;4758858;30;20055;-63
2022/05/05 03:13:21;;;;;;;12.82;8.48;;;13.80;99.90;;;;;;4758042;30;20074;-63
2022/05/05 03:15:48;;;;;;;13.07;7.70;;;13.80;99.90;;;;;;4745581;30;20035;-63
2022/05/05 03:18:15;;;;;;;12.38;8.10;;;13.70;99.90;;;;;;4745794;30;20074;-63
2022/05/05 03:20:43;;;;;;;14.13;8.30;;;13.70;99.90;;;;;;4760022;30;20058;-63
2022/05/05 03:23:10;;;;;;;26.77;8.45;;;13.70;99.90;;;;;;4759454;30;20144;-63
2022/05/05 03:25:37;;;;;;;12.93;7.75;;;13.70;99.90;;;;;;4755970;30;20119;-62
2022/05/05 03:28:04;;;;;;;12.23;7.38;;;13.70;99.90;;;;;;4759109;30;20044;-62
2022/05/05 03:30:31;;;;;;;14.95;8.18;;;13.70;99.90;;;;;;4760362;30;20047;-63
2022/05/05 03:32:58;;;;;;;12.27;7.43;;;13.70;99.90;;;;;;4758063;30;20131;-63
2022/05/05 03:35:25;;;;;;;13.50;8.23;;;13.80;99.90;;;;;;4758705;30;20058;-63
2022/05/05 03:37:52;;;;;;;13.90;8.32;;;13.70;99.90;;;;;;4751677;30;20059;-63
2022/05/05 03:40:20;;;;;;;15.20;8.18;;;13.70;99.90;;;;;;4756588;30;20059;-63
2022/05/05 03:42:47;;;;;;;14.48;8.55;;;13.70;99.90;;;;;;4758537;30;20079;-63
2022/05/05 03:45:14;;;;;;;14.30;7.90;;;13.70;99.90;;;;;;4758531;30;20566;-63
2022/05/05 03:47:41;;;;;;;13.82;7.95;;;13.70;99.90;;;;;;4756893;30;20048;-63
2022/05/05 03:50:09;;;;;;;12.15;7.47;;;13.70;99.90;;;;;;4759572;30;20043;-63
2022/05/05 03:52:37;;;;;;;14.40;8.15;;;13.70;99.90;;;;;;4726680;30;20055;-63
2022/05/05 03:55:04;;;;;;;13.95;8.15;;;13.70;99.90;;;;;;4756094;30;20178;-63
2022/05/05 03:57:33;;;;;;;14.73;8.43;;;13.60;99.90;;;;;;4754469;30;20056;-62
2022/05/05 04:00:00;;;;;;;15.65;7.55;;;13.60;99.90;;;;;;4757055;30;20397;-63
2022/05/05 04:02:38;;;;;;;14.48;7.07;;;13.60;99.90;;;;;;4758748;30;20129;-63
2022/05/05 04:05:05;;;;;;;13.10;7.10;;;13.60;99.90;;;;;;4759496;30;20109;-63
2022/05/05 04:07:32;;;;;;;16.05;7.82;;;13.60;99.90;;;;;;4755944;30;20054;-62
2022/05/05 04:09:59;;;;;;;14.27;7.85;;;13.70;99.90;;;;;;4757949;30;20496;-62
2022/05/05 04:12:26;;;;;;;11.50;6.93;;;13.70;99.90;;;;;;4758118;30;20047;-63
2022/05/05 04:14:53;;;;;;;12.00;6.40;;;13.60;99.90;;;;;;4757774;30;20075;-63
2022/05/05 04:17:20;;;;;;;13.10;6.68;;;13.60;99.90;;;;;;4741877;30;20519;-63
2022/05/05 04:19:47;;;;;;;12.45;7.25;;;13.70;99.90;;;;;;4759342;30;20052;-62
2022/05/05 04:22:14;;;;;;;13.45;7.35;;;13.70;99.90;;;;;;4758325;30;20051;-63
2022/05/05 04:24:41;;;;;;;11.65;6.72;;;13.70;99.90;;;;;;4755789;30;20554;-62
2022/05/05 04:27:09;;;;;;;11.38;6.80;;;13.80;99.90;;;;;;4756652;30;20059;-63
2022/05/05 04:29:36;;;;;;;11.05;6.28;;;13.70;99.90;;;;;;4756438;30;20044;-63
2022/05/05 04:32:08;;;;;;;13.80;7.05;;;13.80;99.90;;;;;;4756271;30;20056;-63
2022/05/05 04:34:35;;;;;;;10.32;6.57;;;13.90;99.90;;;;;;4757563;30;20139;-63
2022/05/05 04:37:03;;;;;;;11.60;6.80;;;13.90;99.90;;;;;;4759101;30;20055;-63
2022/05/05 04:39:30;;;;;;;11.35;6.20;;;13.90;99.90;;;;;;4756661;30;20070;-63
2022/05/05 04:41:57;;;;;;;11.20;6.50;;;14.00;99.90;;;;;;4757226;30;20527;-63
2022/05/05 04:44:25;;;;;;;11.27;6.63;;;14.00;99.90;;;;;;4756007;30;20055;-63
2022/05/05 04:46:52;;;;;;;11.45;6.43;;;14.10;99.90;;;;;;4756020;30;20052;-63
2022/05/05 04:49:19;;;;;;;9.45;6.18;;;14.00;99.90;;;;;;4756977;30;20047;-64
2022/05/05 04:51:46;;;;;;;10.05;5.85;;;14.10;99.90;;;;;;4758725;30;20895;-63
2022/05/05 04:54:13;;;;;;;10.95;6.63;;;14.10;99.90;;;;;;4755841;30;20048;-63
2022/05/05 04:56:40;;;;;;;8.65;5.70;;;14.20;99.90;;;;;;4757186;30;20039;-63
2022/05/05 04:59:07;;;;;;;10.35;5.90;;;14.20;99.90;;;;;;4757518;30;20134;-63
2022/05/05 05:01:34;;;;;;;9.90;5.75;;;14.30;99.90;;;;;;4729883;30;20056;-63
2022/05/05 05:04:02;;;;;;;10.30;5.93;;;14.40;99.90;;;;;;4706749;30;20059;-63
2022/05/05 05:06:29;;;;;;;8.70;5.78;;;14.40;99.90;;;;;;4726632;30;20043;-63
2022/05/05 05:08:56;;;;;;;9.95;5.53;;;14.40;99.90;;;;;;4728913;30;20650;-63
2022/05/05 05:11:23;;;;;;;8.23;4.70;;;14.30;99.90;;;;;;4713149;30;20059;-63
2022/05/05 05:13:51;;;;;;;8.55;5.07;;;14.40;99.90;;;;;;4722395;30;20066;-63
2022/05/05 05:16:18;;;;;;;8.32;5.25;;;14.30;99.90;;;;;;4696944;30;20807;-63
2022/05/05 05:19:05;;;;;;;10.15;5.45;;;14.30;99.90;;;;;;4727351;30;20083;-63
2022/05/05 05:21:32;;;;;;;9.07;4.93;;;14.40;99.90;;;;;;4728434;30;20723;-63
2022/05/05 05:23:59;;;;;;;9.52;5.78;;;14.40;99.90;;;;;;4725554;30;20511;-63
2022/05/05 05:26:26;;;;;;;7.68;5.53;;;14.40;99.90;;;;;;4727400;30;21342;-63
2022/05/05 05:28:53;;;;;;;9.65;5.47;;;14.40;99.90;;;;;;4725560;30;20195;-63
2022/05/05 05:31:22;;;;;;;10.75;5.63;;;14.40;99.90;;;;;;4708961;30;20052;-63
2022/05/05 05:33:51;;;;;;;9.63;6.03;;;14.40;99.90;;;;;;4724886;30;20054;-63
2022/05/05 05:36:21;;;;;;;8.75;5.65;;;14.40;99.90;;;;;;4717126;30;20136;-63
2022/05/05 05:38:48;;;;;;;9.13;5.18;;;14.40;99.90;;;;;;4726306;30;20066;-63
2022/05/05 05:41:15;;;;;;;27.95;6.15;;;14.50;99.90;;;;;;4701464;30;20808;-63
2022/05/05 05:43:42;;;;;;;8.88;5.10;;;14.50;99.90;;;;;;4710545;30;20056;-63
2022/05/05 05:46:09;;;;;;;8.27;5.18;;;14.60;99.90;;;;;;4709543;30;20056;-63
2022/05/05 05:48:39;;;;;;;9.60;5.43;;;14.60;99.90;;;;;;4724360;30;20696;-63
2022/05/05 05:51:06;;;;;;;9.05;4.85;;;14.70;99.90;;;;;;4702041;30;20066;-63
2022/05/05 05:53:33;;;;;;;8.85;4.93;;;14.70;99.90;;;;;;4725106;30;20832;-63
2022/05/05 05:56:01;;;;;;;7.60;5.22;;;14.80;99.90;;;;;;4726090;30;20476;-63
2022/05/05 05:58:27;;;;;;;8.68;5.45;;;14.80;99.90;;;;;;4716609;30;20052;-63
2022/05/05 06:00:55;;;;;;;9.98;4.72;;;14.80;99.90;;;;;;4719945;30;20834;-63
2022/05/05 06:06:07;;;;;;;8.27;5.32;;;15.00;99.90;;;;;;4701803;30;20063;-63
2022/05/05 06:08:34;;;;;;;8.75;5.20;;;15.00;99.90;;;;;;4723007;30;20062;-62
2022/05/05 06:11:01;;;;;;;9.40;5.65;;;15.10;99.90;;;;;;4726888;30;20743;-62
2022/05/05 06:13:29;;;;;;;8.48;5.32;;;15.10;99.90;;;;;;4723362;30;20051;-62
2022/05/05 06:15:56;;;;;;;8.70;5.15;;;15.10;99.90;;;;;;4713094;30;20299;-62
2022/05/05 06:18:23;;;;;;;6.93;4.82;;;15.20;99.90;;;;;;4721928;30;20059;-63
2022/05/05 06:20:51;;;;;;;10.20;5.47;;;15.20;99.90;;;;;;4723991;30;20634;-62
2022/05/05 06:23:18;;;;;;;8.15;5.53;;;15.30;99.90;;;;;;4722646;30;20060;-63
2022/05/05 06:25:45;;;;;;;9.65;4.82;;;15.40;99.90;;;;;;4723169;30;20112;-62
2022/05/05 06:28:12;;;;;;;9.35;5.18;;;15.50;99.90;;;;;;4682002;30;20047;-63
2022/05/05 06:30:39;;;;;;;8.52;5.40;;;15.60;99.90;;;;;;4717406;30;20055;-62
2022/05/05 06:33:06;;;;;;;6.80;4.43;;;15.60;99.90;;;;;;4725415;30;20796;-62
2022/05/05 06:35:33;;;;;;;9.15;4.82;;;15.70;99.90;;;;;;4719338;30;22476;-62
2022/05/05 06:38:00;;;;;;;8.05;5.22;;;15.80;99.90;;;;;;4726498;29;20047;-63
2022/05/05 06:40:28;;;;;;;7.43;4.75;;;16.00;99.90;;;;;;4724929;30;20065;-63
2022/05/05 06:42:56;;;;;;;9.07;5.60;;;16.00;99.90;;;;;;4727865;29;20075;-63
2022/05/05 06:45:23;;;;;;;8.00;5.22;;;16.10;99.90;;;;;;4726718;30;20051;-63
2022/05/05 06:47:50;;;;;;;7.80;5.18;;;16.10;99.90;;;;;;4723426;30;20060;-62
2022/05/05 06:50:21;;;;;;;8.10;5.53;;;16.20;99.90;;;;;;4720271;30;20262;-62
2022/05/05 06:52:49;;;;;;;10.05;5.72;;;16.20;99.90;;;;;;4727140;30;21135;-62
2022/05/05 06:55:18;;;;;;;6.90;4.78;;;16.40;99.90;;;;;;4699586;30;20083;-63
2022/05/05 06:57:46;;;;;;;8.75;4.68;;;16.30;99.90;;;;;;4726208;30;20138;-63
2022/05/05 07:00:14;;;;;;;8.63;5.40;;;16.40;99.90;;;;;;4726356;29;20772;-63
2022/05/05 07:02:41;;;;;;;10.52;5.45;;;16.50;99.90;;;;;;4726819;30;20060;-64
2022/05/05 07:05:24;;;;;;;9.05;5.25;;;16.60;99.10;;;;;;4719641;30;22694;-62
2022/05/05 07:07:52;;;;;;;7.32;4.22;;;16.90;99.00;;;;;;4711357;30;22427;-64
2022/05/05 07:13:07;;;;;;;10.98;6.15;;;17.40;97.00;;;;;;4726448;30;20143;-63
2022/05/05 07:15:34;;;;;;;8.52;4.75;;;17.60;96.30;;;;;;4727149;30;20079;-63
2022/05/05 07:18:01;;;;;;;7.88;5.35;;;17.90;95.00;;;;;;4725585;30;20174;-65
2022/05/05 07:20:28;;;;;;;7.15;4.25;;;18.00;94.90;;;;;;4709096;30;20085;-65
2022/05/05 07:22:58;;;;;;;6.43;3.78;;;18.20;93.50;;;;;;4725241;30;20047;-65
2022/05/05 07:25:28;;;;;;;6.93;4.50;;;18.00;92.50;;;;;;4728775;30;21064;-63
2022/05/05 07:27:55;;;;;;;7.78;4.32;;;18.00;92.20;;;;;;4711394;30;22436;-63
2022/05/05 07:30:23;;;;;;;7.25;4.40;;;18.20;91.80;;;;;;4724446;30;20208;-64
2022/05/05 07:32:50;;;;;;;9.50;4.80;;;18.50;90.70;;;;;;4716650;30;20068;-63
2022/05/05 07:35:18;;;;;;;8.20;5.00;;;18.70;91.50;;;;;;4725682;30;20245;-63
2022/05/05 07:37:45;;;;;;;6.45;4.07;;;18.90;91.40;;;;;;4723295;30;20058;-63
2022/05/05 07:40:12;;;;;;;5.63;3.78;;;19.10;88.20;;;;;;4723569;30;20070;-63
2022/05/05 07:42:42;;;;;;;5.20;3.72;;;19.20;91.30;;;;;;4721849;30;20091;-63
2022/05/05 07:45:09;;;;;;;7.43;4.10;;;19.00;90.00;;;;;;4717128;30;20058;-63
2022/05/05 07:47:37;;;;;;;9.48;4.82;;;19.00;89.70;;;;;;4726807;30;20823;-63
2022/05/05 07:50:06;;;;;;;5.43;3.83;;;19.00;91.10;;;;;;4710410;30;20059;-63
2022/05/05 07:52:34;;;;;;;5.45;3.65;;;19.20;90.00;;;;;;4701660;30;20058;-64
2022/05/05 07:55:01;;;;;;;7.93;3.78;;;19.20;88.70;;;;;;4703090;30;20055;-64
2022/05/05 07:57:28;;;;;;;7.03;4.03;;;19.20;87.10;;;;;;4699926;30;20063;-64
2022/05/05 07:59:56;;;;;;;6.88;3.60;;;19.20;87.80;;;;;;4701588;30;20090;-63
2022/05/05 08:02:24;;;;;;;5.70;3.70;;;19.30;86.10;;;;;;4699694;30;20059;-63
2022/05/05 08:04:53;;;;;;;4.57;3.30;;;19.60;86.40;;;;;;4725180;30;20059;-63
2022/05/05 08:07:21;;;;;;;4.70;3.00;;;19.40;82.10;;;;;;4725227;30;20086;-64
2022/05/05 08:09:48;;;;;;;4.32;3.03;;;19.60;82.20;;;;;;4710208;30;22575;-63
2022/05/05 08:12:31;;;;;;;4.85;3.03;;;19.70;81.50;;;;;;4726765;30;20067;-63
2022/05/05 08:14:59;;;;;;;4.53;2.78;;;19.60;81.50;;;;;;4724348;30;20058;-64
2022/05/05 08:17:26;;;;;;;5.03;3.20;;;19.90;80.30;;;;;;4713814;30;20060;-64
2022/05/05 08:19:53;;;;;;;4.28;2.60;;;19.90;79.30;;;;;;4723555;30;20066;-64
2022/05/05 08:22:21;;;;;;;6.18;3.22;;;20.00;79.30;;;;;;4726939;30;20083;-64
2022/05/05 08:30:20;;;;;;;3.00;2.10;;;20.20;72.70;;;;;;4725048;30;20055;-63
2022/05/05 08:32:47;;;;;;;3.00;1.67;;;20.30;71.90;;;;;;4722688;30;20051;-63
2022/05/05 08:35:14;;;;;;;5.38;1.65;;;20.30;73.10;;;;;;4707014;30;20833;-64
2022/05/05 08:37:41;;;;;;;3.20;1.80;;;20.50;72.00;;;;;;4705026;30;20060;-65
2022/05/05 08:40:12;;;;;;;2.97;1.67;;;20.60;71.80;;;;;;4718652;30;20135;-64
2022/05/05 08:42:40;;;;;;;4.18;1.85;;;20.60;69.60;;;;;;4717908;30;20175;-64
2022/05/05 08:45:07;;;;;;;2.83;1.67;;;20.40;69.30;;;;;;4722357;30;20135;-65
2022/05/05 08:47:36;;;;;;;2.28;1.60;;;20.50;70.70;;;;;;4722592;30;20054;-64
2022/05/05 08:50:07;;;;;;;2.55;1.77;;;20.70;73.20;;;;;;4719610;30;20062;-64
2022/05/05 08:52:38;;;;;;;3.85;1.85;;;20.70;72.20;;;;;;4723772;30;20048;-64
2022/05/05 08:55:06;;;;;;;2.33;1.63;;;20.70;70.80;;;;;;4723645;29;22953;-64
2022/05/05 08:57:33;;;;;;;3.45;1.63;;;20.70;72.00;;;;;;4723042;30;20051;-64
2022/05/05 09:00:00;;;;;;;3.85;1.73;;;20.80;68.80;;;;;;4705601;30;20059;-65
2022/05/05 09:02:27;;;;;;;1.65;0.98;;;20.80;70.20;;;;;;4720513;30;20072;-64
2022/05/05 09:04:54;;;;;;;4.53;1.35;;;20.80;66.90;;;;;;4721587;30;20055;-63
2022/05/05 09:07:22;;;;;;;1.80;1.10;;;21.00;68.00;;;;;;4714052;29;20840;-65
2022/05/05 09:09:50;;;;;;;2.17;1.00;;;21.40;70.90;;;;;;4719428;30;20063;-65
2022/05/05 09:12:19;;;;;;;2.20;1.10;;;21.50;65.40;;;;;;4716969;30;20107;-65
2022/05/05 09:14:53;;;;;;;2.88;1.17;;;21.20;66.80;;;;;;4718656;30;22780;-64
2022/05/05 09:17:23;;;;;;;1.90;1.35;;;21.10;66.80;;;;;;4719909;30;20063;-65
2022/05/05 09:19:52;;;;;;;1.55;1.10;;;20.80;67.00;;;;;;4700673;30;20355;-64
2022/05/05 09:22:25;;;;;;;1.52;1.00;;;20.70;68.10;;;;;;4714496;30;20063;-65
2022/05/05 09:24:56;;;;;;;1.55;1.20;;;20.60;64.20;;;;;;4722378;30;20055;-64
2022/05/05 09:27:24;;;;;;;2.93;1.20;;;20.60;68.10;;;;;;4723926;30;20051;-63
2022/05/05 09:30:12;;;;;;;4.32;1.27;;;20.60;66.10;;;;;;4723628;30;20066;-64
2022/05/05 09:32:46;;;;;;;2.20;1.17;;;20.90;65.70;;;;;;4725174;30;22522;-63
2022/05/05 09:35:15;;;;;;;2.20;1.48;;;20.90;68.10;;;;;;4704469;30;20055;-63
2022/05/05 09:37:48;;;;;;;1.45;0.98;;;21.10;67.40;;;;;;4707065;30;20066;-63
2022/05/05 09:40:24;;;;;;;1.65;0.80;;;21.20;68.80;;;;;;4717587;30;20066;-64
2022/05/05 09:42:53;;;;;;;2.22;1.48;;;21.50;67.10;;;;;;4721284;30;20059;-63
2022/05/05 09:45:25;;;;;;;2.63;1.63;;;21.70;67.20;;;;;;4708160;30;20052;-64
2022/05/05 09:47:59;;;;;;;2.65;1.40;;;21.60;66.20;;;;;;4722296;30;20058;-65
2022/05/05 09:50:29;;;;;;;2.08;1.02;;;21.50;64.90;;;;;;4720691;30;20118;-65
2022/05/05 09:58:36;;;;;;;1.95;1.10;;;21.70;63.90;;;;;;4722822;30;21351;-65
2022/05/05 10:01:06;;;;;;;2.20;0.98;;;21.90;64.00;;;;;;4704616;30;20055;-64
2022/05/05 10:04:00;;;;;;;2.65;1.10;;;22.00;63.70;;;;;;4720818;30;20051;-64
2022/05/05 10:06:27;;;;;;;3.15;1.13;;;21.70;63.20;;;;;;4692115;30;20047;-65
2022/05/05 10:08:57;;;;;;;2.47;1.27;;;21.70;64.00;;;;;;4721697;30;20063;-64
2022/05/05 10:11:25;;;;;;;1.98;1.10;;;21.80;64.50;;;;;;4722990;29;20071;-64
2022/05/05 10:13:52;;;;;;;2.13;1.05;;;21.90;63.60;;;;;;4727257;30;20089;-65
2022/05/05 10:16:20;;;;;;;1.10;0.95;;;21.90;62.10;;;;;;4724251;30;20063;-64
2022/05/05 10:18:47;;;;;;;2.08;1.42;;;22.10;65.60;;;;;;4727749;30;21037;-63
2022/05/05 10:21:37;;;;;;;2.83;1.63;;;22.20;62.10;;;;;;4728724;30;20059;-64
2022/05/05 10:24:28;;;;;;;2.15;1.30;;;22.30;64.60;;;;;;4723530;30;20048;-63
2022/05/05 10:27:00;;;;;;;2.97;1.17;;;22.00;62.80;;;;;;4726662;30;20120;-64
2022/05/05 10:29:30;;;;;;;1.83;1.33;;;22.10;63.50;;;;;;4720133;30;20819;-64
2022/05/05 10:32:25;;;;;;;3.40;1.10;;;22.20;64.70;;;;;;4727010;30;20240;-65
2022/05/05 10:35:07;;;;;;;3.08;1.70;;;22.10;66.00;;;;;;4722007;30;20071;-65
2022/05/05 10:37:37;;;;;;;4.50;1.70;;;21.80;65.30;;;;;;4726282;30;20067;-63
2022/05/05 10:40:06;;;;;;;3.42;1.50;;;21.80;65.00;;;;;;4727007;30;20055;-63
2022/05/05 10:42:38;;;;;;;2.28;1.52;;;21.70;62.60;;;;;;4728196;30;22514;-64
2022/05/05 10:45:18;;;;;;;2.78;1.10;;;21.90;66.90;;;;;;4704729;30;20120;-65
2022/05/05 10:47:55;;;;;;;3.58;1.98;;;22.00;65.00;;;;;;4699906;30;20074;-64
2022/05/05 10:50:53;;;;;;;4.57;1.40;;;22.00;63.90;;;;;;4726286;30;20047;-64
2022/05/05 10:53:41;;;;;;;2.78;1.13;;;22.10;64.30;;;;;;4726613;30;20144;-63
2022/05/05 10:56:20;;;;;;;2.00;1.20;;;21.90;64.50;;;;;;4726869;30;22434;-64
2022/05/05 10:59:03;;;;;;;2.58;1.67;;;22.00;64.00;;;;;;4720307;30;20059;-64
2022/05/05 11:01:45;;;;;;;1.80;1.55;;;22.00;63.40;;;;;;4699137;30;20052;-64
2022/05/05 11:04:15;;;;;;;;;;;22.20;64.30;;;;;;4724385;30;21061;-63
2022/05/05 11:06:42;;;;;;;1.95;1.20;;;22.10;62.50;;;;;;4691077;30;20025;-64
2022/05/05 11:09:27;;;;;;;4.20;1.80;;;22.10;61.30;;;;;;4706744;30;21034;-64
2022/05/05 11:12:16;;;;;;;1.50;1.20;;;22.10;63.90;;;;;;4722800;30;20059;-64
2022/05/05 11:23:49;;;;;;;2.28;1.30;;;22.50;60.10;;;;;;4722241;30;20174;-65
2022/05/05 11:26:19;;;;;;;3.63;1.75;;;22.60;59.40;;;;;;4711327;30;20060;-64
2022/05/05 11:28:48;;;;;;;4.22;1.70;;;22.70;59.10;;;;;;4724091;30;20519;-66
2022/05/05 11:31:22;;;;;;;2.17;1.60;;;22.70;59.30;;;;;;4698207;30;20595;-64
2022/05/05 11:33:53;;;;;;;3.63;1.35;;;22.80;62.50;;;;;;4725678;30;20494;-64
2022/05/05 11:36:28;;;;;;;2.67;1.70;;;22.80;61.80;;;;;;4727401;30;20053;-64
2022/05/05 11:38:57;;;;;;;32.22;2.55;;;22.90;62.20;;;;;;4703848;30;20132;-64
2022/05/05 11:41:25;;;;;;;3.90;1.50;;;23.00;61.00;;;;;;4722111;30;20047;-64
2022/05/05 11:46:45;;;;;;;2.05;1.30;;;23.10;60.90;;;;;;4718092;30;20102;-64
2022/05/05 11:49:13;;;;;;;4.60;1.45;;;23.20;59.20;;;;;;4724929;30;20066;-64
2022/05/05 11:51:40;;;;;;;1.42;1.13;;;23.40;59.00;;;;;;4703289;30;20773;-65
2022/05/05 11:54:11;;;;;;;2.72;1.60;;;23.40;57.60;;;;;;4723241;30;21392;-64
2022/05/05 11:56:46;;;;;;;5.45;2.30;;;23.50;58.60;;;;;;4726153;30;20048;-64
2022/05/05 12:02:35;;;;;;;3.30;1.60;;;23.50;58.60;;;;;;4724805;30;20051;-63
2022/05/05 12:05:08;;;;;;;5.13;1.90;;;22.90;57.80;;;;;;4712722;29;20099;-63
2022/05/05 12:07:36;;;;;;;3.38;1.88;;;22.80;60.90;;;;;;4721303;30;20100;-64
2022/05/05 12:10:08;;;;;;;4.07;1.77;;;23.00;60.70;;;;;;4722933;30;20063;-65
2022/05/05 12:12:38;;;;;;;4.50;1.75;;;23.20;61.30;;;;;;4685108;30;20865;-65
2022/05/05 12:15:06;;;;;;;3.38;2.03;;;23.20;58.80;;;;;;4723434;30;20055;-65
2022/05/05 12:17:41;;;;;;;2.25;1.73;;;23.10;59.40;;;;;;4713519;30;20062;-64
2022/05/05 12:20:11;;;;;;;4.68;1.40;;;23.30;62.00;;;;;;4722898;30;20051;-65
2022/05/05 12:22:40;;;;;;;3.55;1.88;;;23.50;59.00;;;;;;4723755;30;20064;-64
2022/05/05 12:25:14;;;;;;;3.15;2.08;;;23.60;58.50;;;;;;4698784;30;20107;-65
2022/05/05 12:28:10;;;;;;;2.78;1.92;;;23.70;56.80;;;;;;4724796;30;20055;-63
2022/05/05 12:30:40;;;;;;;2.38;1.92;;;23.80;58.90;;;;;;4707503;30;20051;-65
2022/05/05 12:33:09;;;;;;;3.83;1.60;;;23.90;55.10;;;;;;4722815;30;20182;-65
2022/05/05 12:35:41;;;;;;;3.92;2.10;;;23.60;56.00;;;;;;4694746;30;20056;-65
2022/05/05 12:38:13;;;;;;;2.97;1.70;;;23.20;59.40;;;;;;4726771;30;20059;-64
2022/05/05 12:40:42;;;;;;;3.97;1.63;;;23.50;59.20;;;;;;4721562;30;20257;-64
2022/05/05 12:43:19;;;;;;;3.28;1.50;;;23.80;57.80;;;;;;4722556;30;23372;-64
2022/05/05 12:45:48;;;;;;;3.67;1.77;;;23.90;52.60;;;;;;4724515;30;20051;-64
2022/05/05 12:48:15;;;;;;;3.75;1.55;;;24.10;54.30;;;;;;4725910;30;20055;-63
2022/05/05 12:50:52;;;;;;;3.67;1.70;;;24.30;54.20;;;;;;4697023;30;20070;-64
2022/05/05 13:01:48;;;;;;;2.92;1.90;;;23.70;53.80;;;;;;4712229;30;20066;-64
2022/05/05 13:04:18;;;;;;;4.10;1.70;;;23.40;54.50;;;;;;4724438;30;20106;-64
2022/05/05 13:06:48;;;;;;;2.83;1.58;;;23.20;54.40;;;;;;4719938;30;20106;-64
2022/05/05 13:09:15;;;;;;;3.42;1.95;;;23.00;53.60;;;;;;4715299;30;20043;-64
2022/05/05 13:11:49;;;;;;;4.07;1.50;;;23.00;56.60;;;;;;4713295;30;20073;-64
2022/05/05 13:14:16;;;;;;;1.98;1.60;;;23.10;54.30;;;;;;4722373;30;20067;-65
2022/05/05 13:16:43;;;;;;;1.80;1.42;;;23.30;58.60;;;;;;4725752;30;20063;-64
2022/05/05 13:19:10;;;;;;;2.53;1.65;;;23.40;54.10;;;;;;4722434;30;20784;-64
2022/05/05 13:21:39;;;;;;;4.15;1.50;;;23.70;53.30;;;;;;4726383;30;20064;-63
2022/05/05 13:24:09;;;;;;;3.70;1.50;;;23.80;51.90;;;;;;4709706;30;20067;-65
2022/05/05 13:26:38;;;;;;;5.00;1.58;;;24.00;52.40;;;;;;4706997;30;20064;-64
2022/05/05 13:29:05;;;;;;;5.55;1.73;;;24.10;51.10;;;;;;4725978;30;20062;-65
2022/05/05 13:31:33;;;;;;;3.17;1.83;;;24.20;51.20;;;;;;4725142;30;20047;-64
2022/05/05 13:34:00;;;;;;;4.13;1.70;;;24.20;50.80;;;;;;4721864;30;20056;-63
2022/05/05 13:36:28;;;;;;;2.72;1.38;;;24.10;51.90;;;;;;4684628;30;20058;-63
2022/05/05 13:38:56;;;;;;;3.25;1.95;;;24.10;51.60;;;;;;4701891;30;20060;-64
2022/05/05 13:41:33;;;;;;;2.45;1.67;;;24.00;50.50;;;;;;4720941;30;20194;-64
2022/05/05 13:44:04;;;;;;;3.75;1.90;;;24.00;50.90;;;;;;4724814;30;20059;-64
2022/05/05 13:46:32;;;;;;;2.95;1.58;;;24.00;52.00;;;;;;4719790;30;20550;-64